Etusivu
METAR-TAF:

METAR-TAF

Lentoasemat :

Pikeville, Kentucky, Yhdysvallat

Leveyspiiri: 37-33-42N, Pituuspiiri: 082-33-59W, korkeus merenpinnasta: 449 m

Tämänhetkinen sää

Tämä raportti tehtiin 21 minuuttia sitten, kello 04.55 UTC
tyyntä
Lämpötila 17°C
Kosteus 39%
Ilmanpaine 1017 hPa
Näkyvyys: 16.1 km
selkeää

METAR: KPBX 050455Z AUTO 00000KT 10SM CLR 17/03 A3002 RMK AO2 T01650030 402140081

Aika: 01:16 (05:16 UTC)


TAF: puuttuu

Säähavainnot ja -ennusteet yli 4000 lentoasemalta (METAR- ja TAF-raportit).

Käytössä olevat sääasemat on merkitty karttaan keltaisilla ja punaisilla pisteillä.

Aseta hiiri pisteen päälle nähdäksesi sääaseman nimen.

Klikkaa sitten nähdäksesi säähavainnot ja -ennusteet.

Kartan vaihtaminen: klikkaa mustalla rastilla varustettuja vihreitä pisteitä, niin voit zoomata sisään; viivalla varustettua vihreää pistettä, niin voit zoomata ulos tai vihreitä nuolia, niin pääset viereisille kartoille.


METAR-TAF: